.
WxDataArchive / Data Records for 2007-05-03
2007-05-02 May 2007 2007-05-04

Data Records for Thursday, 03 May 2007

Time	Temp	Chill	HIndex	Humid	Dewpt	 Wind 	HiWind	WindDir	Rain 	Barom 
-----	----	-----	------	-----	-----	------	------	-------	-----	----- 
00:00	50.4	50.4	50.4	77	43.5	0	1	90	0.00	30.112 
00:05	50.2	50.2	50.2	77	43.3	0	0	---	0.00	30.110 
00:10	49.9	49.9	49.9	77	43.0	0	1	90	0.00	30.111 
00:15	49.9	49.9	49.9	76	42.6	0	1	90	0.00	30.111 
00:20	49.9	49.9	49.9	76	42.6	0	3	68	0.00	30.110 
00:25	49.9	49.9	49.9	75	42.3	0	2	68	0.00	30.106 
00:30	49.9	49.9	49.9	75	42.3	0	3	68	0.00	30.104 
00:35	50.1	50.1	50.1	73	41.8	2	4	112	0.00	30.107 
00:40	50.1	50.1	50.1	73	41.8	1	4	112	0.00	30.109 
00:45	50.1	50.1	50.1	73	41.8	1	4	90	0.00	30.111 
00:50	50.1	50.1	50.1	73	41.8	1	3	112	0.00	30.112 
00:55	49.9	49.9	49.9	74	41.9	0	1	112	0.00	30.112 
01:00	49.6	49.6	49.6	76	42.3	0	1	112	0.00	30.113 
01:05	49.5	49.5	49.5	77	42.6	0	2	112	0.00	30.111 
01:10	49.4	49.4	49.4	77	42.5	1	2	112	0.00	30.112 
01:15	49.4	49.4	49.4	78	42.8	1	2	112	0.00	30.112 
01:20	49.2	49.2	49.2	78	42.6	1	3	112	0.00	30.113 
01:25	49.2	49.2	49.2	78	42.6	1	3	112	0.00	30.113 
01:30	49.1	49.1	49.1	78	42.5	1	3	112	0.00	30.114 
01:35	49.1	49.1	49.1	78	42.5	1	3	112	0.00	30.113 
01:40	48.9	48.9	48.9	78	42.3	1	3	112	0.00	30.113 
01:45	48.8	48.8	48.8	79	42.6	1	3	90	0.00	30.113 
01:50	48.6	48.6	48.6	79	42.4	1	3	90	0.00	30.113 
01:55	48.5	48.5	48.5	80	42.6	1	2	90	0.00	30.113 
02:00	48.2	48.2	48.2	80	42.3	1	3	90	0.00	30.113 
02:05	48.0	48.0	48.0	80	42.1	1	5	112	0.00	30.113 
02:10	48.0	48.0	48.0	80	42.1	1	4	112	0.00	30.114 
02:15	48.0	48.0	48.0	80	42.1	1	3	90	0.00	30.113 
02:20	47.7	47.7	47.7	80	41.8	1	2	90	0.00	30.112 
02:25	47.7	47.7	47.7	81	42.2	0	3	90	0.00	30.111 
02:30	47.6	47.6	47.6	81	42.1	1	4	90	0.00	30.110 
02:35	47.6	47.6	47.6	81	42.1	1	4	112	0.00	30.109 
02:40	47.4	47.4	47.4	81	41.9	1	3	112	0.00	30.108 
02:45	47.3	47.3	47.3	82	42.1	1	3	112	0.00	30.105 
02:50	47.1	47.1	47.1	82	41.9	1	3	112	0.00	30.106 
02:55	47.0	47.0	47.0	83	42.1	1	3	112	0.00	30.109 
03:00	47.0	47.0	47.0	83	42.1	1	3	112	0.00	30.109 
03:05	46.8	46.8	46.8	83	41.9	0	2	90	0.00	30.109 
03:10	46.5	46.5	46.5	84	41.9	0	1	90	0.00	30.107 
03:15	46.4	46.4	46.4	84	41.8	0	3	90	0.00	30.104 
03:20	46.2	46.2	46.2	85	41.9	1	3	90	0.00	30.101 
03:25	46.2	46.2	46.2	85	41.9	0	3	112	0.00	30.102 
03:30	46.2	46.2	46.2	85	41.9	0	2	112	0.00	30.099 
03:35	46.1	46.1	46.1	85	41.8	0	2	112	0.00	30.100 
03:40	46.0	46.0	46.0	84	41.4	0	2	112	0.00	30.098 
03:45	45.8	45.8	45.8	84	41.2	0	2	112	0.00	30.098 
03:50	45.8	45.8	45.8	84	41.2	0	3	68	0.00	30.099 
03:55	45.8	45.8	45.8	82	40.6	1	3	45	0.00	30.100 
04:00	45.8	45.8	45.8	81	40.3	1	4	45	0.00	30.100 
04:05	46.0	46.0	46.0	80	40.2	0	3	112	0.00	30.104 
04:10	46.0	46.0	46.0	79	39.9	0	2	45	0.00	30.103 
04:15	46.0	46.0	46.0	78	39.5	1	2	90	0.00	30.100 
04:20	46.0	46.0	46.0	78	39.5	0	3	68	0.00	30.099 
04:25	46.0	46.0	46.0	78	39.5	1	2	68	0.00	30.099 
04:30	46.0	46.0	46.0	77	39.2	1	5	112	0.00	30.099 
04:35	46.0	46.0	46.0	76	38.9	1	3	68	0.00	30.100 
04:40	46.1	46.1	46.1	75	38.6	1	4	90	0.00	30.099 
04:45	46.2	46.2	46.2	74	38.4	1	4	45	0.00	30.099 
04:50	46.2	46.2	46.2	74	38.4	1	5	45	0.00	30.098 
04:55	46.2	46.2	46.2	74	38.4	0	2	90	0.00	30.098 
05:00	46.2	46.2	46.2	73	38.0	1	4	45	0.00	30.098 
05:05	46.2	46.2	46.2	73	38.0	1	3	90	0.00	30.099 
05:10	46.2	46.2	46.2	73	38.0	1	3	90	0.00	30.099 
05:15	46.2	46.2	46.2	73	38.0	1	3	68	0.00	30.098 
05:20	46.2	46.2	46.2	73	38.0	1	3	90	0.00	30.099 
05:25	46.2	46.2	46.2	73	38.0	1	3	68	0.00	30.099 
05:30	46.2	46.2	46.2	73	38.0	1	4	90	0.00	30.099 
05:35	46.2	46.2	46.2	73	38.0	1	5	90	0.00	30.100 
05:40	46.2	46.2	46.2	73	38.0	1	3	90	0.00	30.102 
05:45	46.2	46.2	46.2	73	38.0	1	4	112	0.00	30.103 
05:50	46.2	46.2	46.2	73	38.0	1	4	112	0.00	30.103 
05:55	46.2	46.2	46.2	74	38.4	1	4	45	0.00	30.102 
06:00	46.2	46.2	46.2	74	38.4	1	4	90	0.00	30.101 
06:05	46.2	46.2	46.2	74	38.4	1	4	112	0.00	30.104 
06:10	46.2	46.2	46.2	74	38.4	1	3	112	0.00	30.104 
06:15	46.4	46.4	46.4	74	38.6	1	3	112	0.00	30.108 
06:20	46.4	46.4	46.4	74	38.6	0	2	112	0.00	30.111 
06:25	46.5	46.5	46.5	74	38.7	1	3	45	0.00	30.112 
06:30	46.7	46.7	46.7	74	38.9	1	4	68	0.00	30.114 
06:35	46.8	46.8	46.8	74	39.0	1	3	90	0.00	30.113 
06:40	47.1	47.1	47.1	73	38.9	2	6	112	0.00	30.115 
06:45	47.3	47.3	47.3	73	39.1	1	4	68	0.00	30.115 
06:50	47.4	47.4	47.4	73	39.2	1	5	135	0.00	30.116 
06:55	47.7	47.7	47.7	73	39.5	2	5	90	0.00	30.114 
07:00	48.0	48.0	48.0	73	39.8	2	4	112	0.00	30.114 
07:05	48.2	48.2	48.2	73	40.0	1	4	90	0.00	30.118 
07:10	48.5	48.5	48.5	72	39.9	3	9	112	0.00	30.118 
07:15	48.8	48.8	48.8	72	40.2	2	6	112	0.00	30.118 
07:20	48.9	48.9	48.9	71	39.9	3	10	90	0.00	30.118 
07:25	49.4	48.2	49.4	71	40.4	4	10	90	0.00	30.119 
07:30	49.9	49.9	49.9	69	40.1	3	9	112	0.00	30.121 
07:35	50.2	50.2	50.2	69	40.4	4	12	90	0.00	30.123 
07:40	50.4	50.4	50.4	70	41.0	3	9	112	0.00	30.124 
07:45	50.4	50.4	50.4	70	41.0	3	6	112	0.00	30.127 
07:50	50.2	50.2	50.2	70	40.8	4	12	112	0.00	30.127 
07:55	50.5	50.5	50.5	69	40.7	4	10	112	0.00	30.123 
08:00	51.1	51.1	51.1	70	41.7	5	12	112	0.00	30.124 
08:05	51.6	51.6	51.6	69	41.8	4	10	112	0.00	30.131 
08:10	51.7	51.7	51.7	68	41.5	5	9	112	0.00	30.128 
08:15	52.0	52.0	52.0	68	41.8	4	6	112	0.00	30.130 
08:20	52.3	52.3	52.3	67	41.7	4	10	112	0.00	30.130 
08:25	53.1	53.1	53.1	66	42.0	3	10	90	0.00	30.130 
08:30	53.5	53.5	53.5	67	42.8	3	9	112	0.00	30.131 
08:35	53.8	53.8	53.8	65	42.3	4	8	112	0.00	30.130 
08:40	54.2	54.2	54.2	63	41.9	5	11	112	0.00	30.132 
08:45	55.1	55.1	55.1	64	43.1	3	10	112	0.00	30.136 
08:50	55.9	55.9	55.9	61	42.6	5	10	112	0.00	30.133 
08:55	56.3	56.3	56.3	62	43.4	5	10	112	0.00	30.133 
09:00	57.0	57.0	57.0	56	41.5	5	11	112	0.00	30.130 
09:05	57.3	57.3	57.3	55	41.3	6	14	112	0.00	30.131 
09:10	58.1	58.1	58.1	55	42.0	3	10	90	0.00	30.135 
09:15	58.4	58.4	58.4	54	41.8	5	10	112	0.00	30.135 
09:20	58.3	58.3	58.3	53	41.2	7	14	90	0.00	30.136 
09:25	58.1	58.1	58.1	54	41.5	7	11	112	0.00	30.137 
09:30	58.4	58.4	58.4	55	42.3	6	13	112	0.00	30.133 
09:35	58.6	58.6	58.6	57	43.4	6	13	112	0.00	30.135 
09:40	59.0	59.0	59.0	56	43.3	5	10	112	0.00	30.133 
09:45	59.0	59.0	59.0	53	41.9	6	12	112	0.00	30.135 
09:50	59.5	59.5	59.5	54	42.8	5	14	90	0.00	30.136 
09:55	59.8	59.8	59.8	56	44.1	5	11	112	0.00	30.138 
10:00	60.1	60.1	60.1	54	43.4	5	12	112	0.00	30.137 
10:05	60.9	60.9	60.9	51	42.6	5	10	112	0.00	30.132 
10:10	60.9	60.9	60.9	50	42.1	6	15	112	0.00	30.130 
10:15	61.2	61.2	61.2	51	42.9	6	13	112	0.00	30.130 
10:20	61.0	61.0	61.0	54	44.2	6	12	112	0.00	30.129 
10:25	61.0	61.0	61.0	52	43.2	5	11	112	0.00	30.128 
10:30	60.9	60.9	60.9	50	42.1	6	15	112	0.00	30.132 
10:35	60.9	60.9	60.9	52	43.2	6	12	112	0.00	30.130 
10:40	61.0	61.0	61.0	51	42.7	6	12	112	0.00	30.129 
10:45	61.2	61.2	61.2	54	44.4	7	12	112	0.00	30.128 
10:50	61.6	61.6	61.6	51	43.3	6	13	112	0.00	30.130 
10:55	62.1	62.1	62.1	50	43.2	7	13	112	0.00	30.129 
11:00	62.6	62.6	62.6	54	45.7	6	12	112	0.00	30.127 
11:05	62.9	62.9	62.9	51	44.5	7	13	90	0.00	30.130 
11:10	62.9	62.9	62.9	49	43.4	8	15	112	0.00	30.128 
11:15	63.4	63.4	63.4	51	45.0	6	13	112	0.00	30.126 
11:20	63.4	63.4	63.4	47	42.8	7	16	112	0.00	30.126 
11:25	64.2	64.2	64.2	50	45.2	5	14	112	0.00	30.124 
11:30	64.0	64.0	64.0	48	43.9	7	13	90	0.00	30.120 
11:35	64.5	64.5	64.5	48	44.4	6	14	112	0.00	30.124 
11:40	64.0	64.0	64.0	46	42.8	8	16	112	0.00	30.126 
11:45	63.7	63.7	63.7	48	43.6	6	12	90	0.00	30.124 
11:50	64.2	64.2	64.2	47	43.5	7	12	112	0.00	30.123 
11:55	64.5	64.5	64.5	48	44.4	7	17	112	0.00	30.121 
12:00	64.3	64.3	64.3	47	43.6	6	15	90	0.00	30.118 
12:05	64.5	64.5	64.5	49	44.9	6	17	112	0.00	30.121 
12:10	64.5	64.5	64.5	46	43.3	8	14	112	0.00	30.121 
12:15	65.0	65.0	65.0	47	44.3	6	13	112	0.00	30.117 
12:20	64.7	64.7	64.7	45	42.9	8	17	112	0.00	30.117 
12:25	64.3	64.3	64.3	46	43.1	6	13	112	0.00	30.115 
12:30	65.2	65.2	65.2	48	45.0	6	11	112	0.00	30.112 
12:35	65.3	65.3	65.3	44	42.8	8	15	112	0.00	30.113 
12:40	65.5	65.5	65.5	46	44.2	6	11	112	0.00	30.109 
12:45	65.5	65.5	65.5	47	44.7	7	13	112	0.00	30.109 
12:50	65.5	65.5	65.5	44	43.0	7	14	112	0.00	30.108 
12:55	65.0	65.0	65.0	43	42.0	7	12	112	0.00	30.109 
13:00	64.7	64.7	64.7	43	41.7	8	15	90	0.00	30.105 
13:05	64.7	64.7	64.7	42	41.1	6	14	112	0.00	30.108 
13:10	64.5	64.5	64.5	44	42.1	7	13	90	0.00	30.111 
13:15	64.5	64.5	64.5	44	42.1	6	12	90	0.00	30.111 
13:20	65.0	65.0	65.0	43	42.0	6	11	112	0.00	30.110 
13:25	65.5	65.5	65.5	44	43.0	5	12	112	0.00	30.109 
13:30	65.3	65.3	65.3	43	42.2	6	14	112	0.00	30.108 
13:35	65.5	65.5	65.5	45	43.6	6	11	112	0.00	30.109 
13:40	65.5	65.5	65.5	43	42.4	5	17	112	0.00	30.110 
13:45	65.5	65.5	65.5	43	42.4	5	12	90	0.00	30.110 
13:50	65.5	65.5	65.5	44	43.0	5	13	112	0.00	30.108 
13:55	65.8	65.8	65.8	42	42.1	7	13	112	0.00	30.108 
14:00	66.4	66.4	66.4	46	45.0	6	14	90	0.00	30.105 
14:05	66.6	66.6	66.6	43	43.4	7	13	90	0.00	30.104 
14:10	66.9	66.9	66.9	40	41.8	6	11	90	0.00	30.105 
14:15	66.8	66.8	66.8	45	44.8	5	12	90	0.00	30.104 
14:20	67.4	67.4	67.4	42	43.5	4	9	90	0.00	30.105 
14:25	67.4	67.4	67.4	45	45.3	6	11	90	0.00	30.099 
14:30	67.3	67.3	67.3	41	42.8	5	12	90	0.00	30.102 
14:35	67.4	67.4	67.4	42	43.5	5	11	112	0.00	30.100 
14:40	67.3	67.3	67.3	45	45.2	6	13	112	0.00	30.101 
14:45	67.4	67.4	67.4	42	43.5	5	12	112	0.00	30.100 
14:50	67.6	67.6	67.6	40	42.4	6	11	112	0.00	30.099 
14:55	67.4	67.4	67.4	41	42.9	7	15	90	0.00	30.096 
15:00	67.1	67.1	67.1	40	42.0	7	14	90	0.00	30.095 
15:05	66.9	66.9	66.9	38	40.5	7	16	112	0.00	30.096 
15:10	66.9	66.9	66.9	42	43.1	6	13	112	0.00	30.094 
15:15	66.9	66.9	66.9	42	43.1	5	11	112	0.00	30.094 
15:20	67.1	67.1	67.1	41	42.6	6	14	112	0.00	30.094 
15:25	66.9	66.9	66.9	40	41.8	6	12	112	0.00	30.087 
15:30	66.9	66.9	66.9	39	41.1	6	13	90	0.00	30.085 
15:35	66.8	66.8	66.8	37	39.7	7	12	112	0.00	30.086 
15:40	66.8	66.8	66.8	39	41.0	6	11	112	0.00	30.083 
15:45	66.6	66.6	66.6	36	38.8	7	15	112	0.00	30.083 
15:50	66.3	66.3	66.3	40	41.2	7	13	112	0.00	30.082 
15:55	66.4	66.4	66.4	41	42.0	6	14	112	0.00	30.081 
16:00	66.4	66.4	66.4	37	39.3	6	15	112	0.00	30.081 
16:05	66.4	66.4	66.4	39	40.7	6	13	112	0.00	30.080 
16:10	66.4	66.4	66.4	35	37.9	6	14	112	0.00	30.080 
16:15	66.6	66.6	66.6	37	39.5	6	14	112	0.00	30.077 
16:20	66.6	66.6	66.6	36	38.8	6	17	112	0.00	30.078 
16:25	66.3	66.3	66.3	36	38.5	6	14	112	0.00	30.080 
16:30	66.1	66.1	66.1	36	38.4	6	14	112	0.00	30.081 
16:35	65.8	65.8	65.8	36	38.1	6	16	112	0.00	30.082 
16:40	65.6	65.6	65.6	36	37.9	7	18	112	0.00	30.083 
16:45	65.5	65.5	65.5	35	37.1	7	15	112	0.00	30.088 
16:50	65.2	65.2	65.2	37	38.3	7	15	112	0.00	30.089 
16:55	65.2	65.2	65.2	36	37.6	6	13	90	0.00	30.085 
17:00	65.0	65.0	65.0	37	38.1	6	14	112	0.00	30.086 
17:05	64.7	64.7	64.7	39	39.2	7	13	112	0.00	30.086 
17:10	64.8	64.8	64.8	35	36.5	5	15	112	0.00	30.085 
17:15	64.8	64.8	64.8	35	36.5	7	14	112	0.00	30.084 
17:20	64.7	64.7	64.7	36	37.1	7	12	112	0.00	30.085 
17:25	64.5	64.5	64.5	39	39.0	7	15	112	0.00	30.083 
17:30	64.2	64.2	64.2	38	38.1	8	14	112	0.00	30.083 
17:35	64.0	64.0	64.0	38	37.9	7	13	112	0.00	30.083 
17:40	63.9	63.9	63.9	38	37.8	6	15	90	0.00	30.082 
17:45	63.9	63.9	63.9	39	38.5	5	9	112	0.00	30.083 
17:50	63.9	63.9	63.9	37	37.1	6	13	90	0.00	30.082 
17:55	63.9	63.9	63.9	37	37.1	5	12	90	0.00	30.082 
18:00	63.5	63.5	63.5	38	37.4	6	13	112	0.00	30.084 
18:05	63.2	63.2	63.2	37	36.5	6	13	112	0.00	30.084 
18:10	63.1	63.1	63.1	39	37.7	6	13	112	0.00	30.085 
18:15	62.9	62.9	62.9	39	37.6	4	10	112	0.00	30.084 
18:20	62.6	62.6	62.6	41	38.6	4	9	112	0.00	30.085 
18:25	62.3	62.3	62.3	37	35.7	7	12	112	0.00	30.085 
18:30	62.1	62.1	62.1	37	35.5	6	13	112	0.00	30.086 
18:35	62.0	62.0	62.0	39	36.8	5	13	90	0.00	30.086 
18:40	61.5	61.5	61.5	39	36.3	5	10	112	0.00	30.087 
18:45	61.2	61.2	61.2	40	36.7	5	10	112	0.00	30.090 
18:50	60.9	60.9	60.9	39	35.8	5	12	112	0.00	30.090 
18:55	60.4	60.4	60.4	38	34.7	5	11	112	0.00	30.092 
19:00	60.2	60.2	60.2	39	35.2	4	10	112	0.00	30.095 
19:05	60.1	60.1	60.1	39	35.1	4	10	90	0.00	30.091 
19:10	59.6	59.6	59.6	40	35.3	4	6	112	0.00	30.089 
19:15	59.3	59.3	59.3	41	35.6	3	6	90	0.00	30.095 
19:20	59.0	59.0	59.0	43	36.5	2	4	90	0.00	30.097 
19:25	58.6	58.6	58.6	44	36.8	3	6	112	0.00	30.098 
19:30	58.3	58.3	58.3	42	35.3	3	10	112	0.00	30.101 
19:35	58.1	58.1	58.1	41	34.5	3	10	112	0.00	30.102 
19:40	57.8	57.8	57.8	43	35.5	3	6	112	0.00	30.103 
19:45	57.5	57.5	57.5	43	35.2	3	7	90	0.00	30.102 
19:50	57.2	57.2	57.2	45	36.1	3	6	90	0.00	30.103 
19:55	56.7	56.7	56.7	46	36.2	2	5	112	0.00	30.104 
20:00	56.5	56.5	56.5	46	36.0	2	4	112	0.00	30.102 
20:05	56.3	56.3	56.3	46	35.8	3	7	112	0.00	30.099 
20:10	56.2	56.2	56.2	46	35.7	3	7	112	0.00	30.100 
20:15	56.0	56.0	56.0	47	36.1	3	6	112	0.00	30.099 
20:20	55.9	55.9	55.9	48	36.5	3	8	90	0.00	30.099 
20:25	55.6	55.6	55.6	48	36.2	2	7	90	0.00	30.100 
20:30	55.4	55.4	55.4	49	36.6	2	5	112	0.00	30.104 
20:35	55.1	55.1	55.1	50	36.8	2	5	90	0.00	30.110 
20:40	55.0	55.0	55.0	50	36.7	2	4	112	0.00	30.112 
20:45	54.7	54.7	54.7	50	36.4	2	6	112	0.00	30.110 
20:50	54.7	54.7	54.7	50	36.4	2	5	90	0.00	30.111 
20:55	54.5	54.5	54.5	51	36.7	2	6	112	0.00	30.111 
21:00	54.2	54.2	54.2	51	36.5	2	4	112	0.00	30.114 
21:05	54.1	54.1	54.1	51	36.4	2	5	112	0.00	30.111 
21:10	53.9	53.9	53.9	51	36.2	2	4	112	0.00	30.112 
21:15	53.8	53.8	53.8	51	36.1	2	4	112	0.00	30.114 
21:20	53.6	53.6	53.6	51	35.9	2	6	90	0.00	30.113 
21:25	53.5	53.5	53.5	51	35.8	2	4	112	0.00	30.113 
21:30	53.3	53.3	53.3	50	35.1	3	5	112	0.00	30.115 
21:35	53.3	53.3	53.3	50	35.1	2	4	112	0.00	30.116 
21:40	53.2	53.2	53.2	49	34.5	2	5	112	0.00	30.118 
21:45	53.1	53.1	53.1	50	35.0	2	4	90	0.00	30.120 
21:50	52.9	52.9	52.9	49	34.3	2	6	112	0.00	30.115 
21:55	52.8	52.8	52.8	50	34.7	2	4	112	0.00	30.115 
22:00	52.6	52.6	52.6	50	34.5	2	5	112	0.00	30.114 
22:05	52.5	52.5	52.5	50	34.4	1	4	90	0.00	30.111 
22:10	52.3	52.3	52.3	50	34.2	2	5	112	0.00	30.113 
22:15	52.3	52.3	52.3	50	34.2	2	4	112	0.00	30.113 
22:20	52.2	52.2	52.2	50	34.1	1	4	90	0.00	30.112 
22:25	52.0	52.0	52.0	49	33.4	2	4	90	0.00	30.111 
22:30	51.9	51.9	51.9	50	33.9	1	3	112	0.00	30.109 
22:35	51.7	51.7	51.7	50	33.7	2	5	112	0.00	30.107 
22:40	51.7	51.7	51.7	49	33.2	2	5	112	0.00	30.109 
22:45	51.7	51.7	51.7	49	33.2	2	5	112	0.00	30.107 
22:50	51.7	51.7	51.7	50	33.7	2	4	112	0.00	30.107 
22:55	51.6	51.6	51.6	51	34.1	1	3	112	0.00	30.106 
23:00	51.3	51.3	51.3	52	34.3	0	2	112	0.00	30.106 
23:05	51.1	51.1	51.1	54	35.0	0	2	112	0.00	30.104 
23:10	50.7	50.7	50.7	55	35.1	1	3	112	0.00	30.101 
23:15	50.2	50.2	50.2	56	35.1	0	3	112	0.00	30.101 
23:20	50.1	50.1	50.1	56	35.0	1	3	112	0.00	30.101 
23:25	49.9	49.9	49.9	57	35.3	1	4	112	0.00	30.099 
23:30	49.8	49.8	49.8	57	35.2	1	3	68	0.00	30.099 
23:35	49.6	49.6	49.6	58	35.4	1	3	90	0.00	30.101 
23:40	49.6	49.6	49.6	58	35.4	2	5	90	0.00	30.103 
23:45	49.6	49.6	49.6	58	35.4	1	3	45	0.00	30.101 
23:50	49.5	49.5	49.5	58	35.3	2	4	112	0.00	30.100 
23:55	49.5	49.5	49.5	58	35.3	2	5	90	0.00	30.100 

CoCoRaHS
IN-AL-39
A2 Web Hosting
Creative Commons License
GoDaddy
Look for:

loaded 2017-10-19 20:20:41 • last modified 2010-11-18 10:43:29
Privacy PolicyDisclaimer
• wx.awcolley.com is powered by PmWiki v.2002016 •
• all content (unless otherwise noted) © 2017 A W Colley